^^
Datos históricos de la estación: Murcia-Puente Tocinos
Diario Informe para Enero 8, 2019 Unidades:  Métrico    Ingés   Ambas
Diario Semanal Mensual Anual
  Máxima: Mínima: Promedio:
Temperatura: 30.7 °C 15.2 °C 23.2 °C
Punto de rocio: 15.8 °C 9.8 °C 12.8 °C
Humedad: 95% 29% 58%
Velocidad viento: 22.5km/h 0km/h 8.9km/h
Racha viento: 41.8km/h - -
Viento- - SO
Presión: 1013.9 hPa 1007.7 hPa -
Precipitación: 0.0 mm    
 
 
Tabla de datos para Enero 8, 2019
Hora Temperatura Punto de rocio Presión Viento Velocidad viento Racha viento Humedad Intensidad lluvia(por hora) Nubes
00:04 17.9 °C 15.4 °C 1013.9 hPa NNO 3.9 km/h 8.4 km/h 85.3% 0.0 mm
00:09 17.9 °C 15.5 °C 1013.7 hPa NO 4.1 km/h 8 km/h 86% 0.0 mm
00:14 17.9 °C 15.5 °C 1013.7 hPa North 4.7 km/h 6.4 km/h 86% 0.0 mm
00:19 17.9 °C 15.5 °C 1013.7 hPa NNE 4 km/h 8 km/h 86% 0.0 mm
00:24 17.8 °C 15.6 °C 1013.6 hPa NNE 2.9 km/h 8 km/h 86.8% 0.0 mm
00:29 17.8 °C 15.6 °C 1013.6 hPa NNE 2.9 km/h 8 km/h 87% 0.0 mm
00:34 17.8 °C 15.6 °C 1013.6 hPa NNE 2.9 km/h   87% 0.0 mm
00:39 17.7 °C 15.5 °C 1013.5 hPa NNE 1.8 km/h   87% 0.0 mm
00:44 17.7 °C 15.5 °C 1013.5 hPa Calm   7.4 km/h 87% 0.0 mm
00:49 17.7 °C 15.5 °C 1013.7 hPa NNO 1.3 km/h 8.4 km/h 87% 0.0 mm
00:54 17.7 °C 15.6 °C 1013.7 hPa NNO 3.2 km/h 8 km/h 87.8% 0.0 mm
00:59 17.7 °C 15.6 °C 1013.7 hPa NNO 3.1 km/h 6.4 km/h 88% 0.0 mm
01:04 17.7 °C 15.6 °C 1013.7 hPa NNO 2.9 km/h 7.6 km/h 88% 0.0 mm
01:09 17.6 °C 15.6 °C 1013.7 hPa NO 2.9 km/h 8 km/h 88% 0.0 mm
01:14 17.6 °C 15.6 °C 1013.7 hPa NO 2.9 km/h 4.8 km/h 88% 0.0 mm
01:19 17.6 °C 15.6 °C 1013.7 hPa NNE 2.7 km/h 5.6 km/h 88% 0.0 mm
01:24 17.6 °C 15.6 °C 1013.7 hPa NE 2.2 km/h 4.8 km/h 88% 0.0 mm
01:29 17.6 °C 15.7 °C 1013.7 hPa North 2.2 km/h 7.4 km/h 88.7% 0.0 mm
01:34 17.6 °C 15.8 °C 1013.7 hPa NNO 2.2 km/h 8 km/h 89% 0.0 mm
01:39 17.6 °C 15.8 °C 1013.6 hPa North 2.2 km/h 4.8 km/h 89% 0.0 mm
01:44 17.6 °C 15.8 °C 1013.6 hPa North 2.2 km/h   89% 0.0 mm
01:49 17.6 °C 15.8 °C 1013.6 hPa North 1.4 km/h   89% 0.0 mm
01:54 17.5 °C 15.7 °C 1013.5 hPa Calm   3.9 km/h 89% 0.0 mm
01:59 17.6 °C 15.7 °C 1013.5 hPa Calm   5.8 km/h 89% 0.0 mm
02:04 17.6 °C 15.8 °C 1013.5 hPa Calm   6.4 km/h 89% 0.0 mm
02:09 17.6 °C 15.7 °C 1013.2 hPa SE 0.8 km/h 4.8 km/h 88.4% 0.0 mm
02:14 17.5 °C 15.5 °C 1013.2 hPa SE 2.2 km/h   88% 0.0 mm
02:19 17.5 °C 15.5 °C 1013.2 hPa SE 1.4 km/h 5 km/h 88% 0.0 mm
02:24 17.5 °C 15.5 °C 1013.0 hPa Calm   5.8 km/h 88% 0.0 mm
02:29 17.5 °C 15.5 °C 1013.0 hPa Calm   6.4 km/h 88% 0.0 mm
02:34 17.5 °C 15.4 °C 1013.0 hPa Calm   3.2 km/h 87.5% 0.0 mm
02:39 17.5 °C 15.3 °C 1012.9 hPa Calm     87% 0.0 mm
02:44 17.4 °C 15.2 °C 1012.9 hPa Calm     87% 0.0 mm
02:49 17.4 °C 15.2 °C 1012.9 hPa Calm     87% 0.0 mm
02:54 17.4 °C 15.2 °C 1012.8 hPa Calm     87% 0.0 mm
02:59 17.4 °C 15.2 °C 1012.8 hPa Calm   5 km/h 86.6% 0.0 mm
03:04 17.4 °C 15.1 °C 1012.8 hPa Calm   7.4 km/h 86% 0.0 mm
03:09 17.4 °C 15.1 °C 1012.6 hPa Sur 1.2 km/h 9.5 km/h 86% 0.0 mm
03:14 17.4 °C 15 °C 1012.6 hPa Sur 3.2 km/h 9.7 km/h 85.7% 0.0 mm
03:19 17.4 °C 14.8 °C 1012.6 hPa Sur 4.4 km/h 10 km/h 85% 0.0 mm
03:24 17.4 °C 14.8 °C 1012.3 hPa SSO 6.5 km/h 9.7 km/h 85% 0.0 mm
03:29 17.4 °C 14.9 °C 1012.3 hPa SSO 6.2 km/h 12.2 km/h 85.2% 0.0 mm
03:34 17.4 °C 15.1 °C 1012.3 hPa SSO 5.8 km/h 13 km/h 86% 0.0 mm
03:39 17.4 °C 15.1 °C 1012.3 hPa SSO 6.8 km/h 11.3 km/h 86% 0.0 mm
03:44 17.4 °C 15 °C 1012.3 hPa SO 8.4 km/h 11.3 km/h 86% 0.0 mm
03:49 17.3 °C 15 °C 1012.3 hPa SSO 7.8 km/h 12.2 km/h 86% 0.0 mm
03:54 17.2 °C 14.9 °C 1012.3 hPa SSO 6.9 km/h 13 km/h 86% 0.0 mm
03:59 17.2 °C 14.9 °C 1012.3 hPa SO 6.9 km/h 12.9 km/h 86.6% 0.0 mm
04:04 17.2 °C 15 °C 1012.3 hPa SO 6.9 km/h 11.9 km/h 87% 0.0 mm
04:09 17.2 °C 15 °C 1012.2 hPa SSO 6.5 km/h 11.3 km/h 87% 0.0 mm
04:14 17.1 °C 14.9 °C 1012.2 hPa SSO 5.8 km/h 13.7 km/h 87% 0.0 mm
04:19 17.1 °C 14.9 °C 1012.2 hPa SSO 6.4 km/h 14.5 km/h 87% 0.0 mm
04:24 17 °C 14.8 °C 1012.2 hPa SSO 7.6 km/h 14.5 km/h 87% 0.0 mm
04:29 16.9 °C 14.7 °C 1012.2 hPa SSO 8 km/h 14.8 km/h 87% 0.0 mm
04:34 16.9 °C 14.8 °C 1012.2 hPa SO 8.7 km/h 14.8 km/h 87.5% 0.0 mm
04:39 16.9 °C 14.9 °C 1012.0 hPa SO 8.3 km/h 13 km/h 88% 0.0 mm
04:44 16.9 °C 14.9 °C 1012.0 hPa SO 7.6 km/h 13 km/h 88% 0.0 mm
04:49 16.9 °C 14.9 °C 1012.0 hPa SO 6.9 km/h 12.9 km/h 88% 0.0 mm
04:54 16.9 °C 14.9 °C 1012.0 hPa SSO 5.8 km/h 11.9 km/h 87.8% 0.0 mm
04:59 16.9 °C 14.7 °C 1012.0 hPa SSO 6.6 km/h 11.9 km/h 87% 0.0 mm
05:04 16.8 °C 14.6 °C 1012.0 hPa SSO 7.6 km/h 11.9 km/h 87% 0.0 mm
05:09 16.8 °C 14.7 °C 1011.8 hPa SSO 7.6 km/h 13 km/h 87.4% 0.0 mm
05:14 16.7 °C 14.7 °C 1011.8 hPa SSO 7.6 km/h 12.9 km/h 88% 0.0 mm
05:19 16.7 °C 14.7 °C 1011.8 hPa SSO 6.6 km/h 9.7 km/h 88% 0.0 mm
05:24 16.7 °C 14.7 °C 1011.7 hPa SSO 5 km/h 9.7 km/h 88% 0.0 mm
05:29 16.7 °C 14.8 °C 1011.7 hPa SO 5.3 km/h 12.2 km/h 88.5% 0.0 mm
05:34 16.7 °C 14.9 °C 1011.7 hPa SO 5.8 km/h 13 km/h 89% 0.0 mm
05:39 16.7 °C 14.8 °C 1011.6 hPa SO 6.2 km/h 11.3 km/h 89% 0.0 mm
05:44 16.6 °C 14.8 °C 1011.6 hPa SSO 6.9 km/h 11.3 km/h 89% 0.0 mm
05:49 16.6 °C 14.7 °C 1011.6 hPa SO 6.5 km/h 9.7 km/h 89% 0.0 mm
05:54 16.5 °C 14.6 °C 1011.3 hPa SO 5.8 km/h 10.3 km/h 89% 0.0 mm
05:59 16.4 °C 14.6 °C 1011.3 hPa SO 6.1 km/h 13.7 km/h 89.2% 0.0 mm
06:04 16.4 °C 14.8 °C 1011.4 hPa SO 6.5 km/h 14.5 km/h 90% 0.0 mm
06:09 16.3 °C 14.6 °C 1011.4 hPa SO 6.6 km/h 14.8 km/h 89.7% 0.0 mm
06:14 16.3 °C 14.6 °C 1011.4 hPa SO 6.9 km/h 14.5 km/h 90% 0.0 mm
06:19 16.2 °C 14.5 °C 1011.5 hPa SO 7.2 km/h 14.5 km/h 90% 0.0 mm
06:24 16.1 °C 14.4 °C 1011.5 hPa SO 7.6 km/h 13 km/h 90% 0.0 mm
06:29 15.8 °C 14.3 °C 1011.5 hPa SO 7.3 km/h 12.9 km/h 90.6% 0.0 mm
06:34 15.7 °C 14.3 °C 1011.5 hPa SSO 6.9 km/h 16.1 km/h 91.2% 0.0 mm
06:39 15.6 °C 14.3 °C 1011.2 hPa SSO 7.2 km/h 16.1 km/h 92% 0.0 mm
06:44 15.5 °C 14.3 °C 1011.2 hPa SO 7.6 km/h 15.6 km/h 92.8% 0.0 mm
06:49 15.4 °C 14.3 °C 1011.3 hPa SO 8.3 km/h 16.1 km/h 93.1% 0.0 mm
06:54 15.4 °C 14.4 °C 1011.3 hPa SSO 9.5 km/h 14.5 km/h 94% 0.0 mm
06:59 15.4 °C 14.4 °C 1011.3 hPa SSO 8.6 km/h 16.1 km/h 94% 0.0 mm
07:04 15.3 °C 14.4 °C 1011.6 hPa SO 7.6 km/h 18 km/h 94% 0.0 mm
07:09 15.3 °C 14.3 °C 1011.6 hPa SO 8.3 km/h 19.3 km/h 94% 0.0 mm
07:14 15.3 °C 14.3 °C 1011.6 hPa SSO 9.5 km/h 19.3 km/h 94% 0.0 mm
07:19 15.2 °C 14.2 °C 1011.6 hPa SSO 9.2 km/h 16.7 km/h 94% 0.0 mm
07:24 15.2 °C 14.3 °C 1011.6 hPa SSO 8.7 km/h 16.1 km/h 94.2% 0.0 mm
07:29 15.2 °C 14.3 °C 1011.6 hPa SSO 8.3 km/h 14.8 km/h 94.4% 0.0 mm
07:34 15.2 °C 14.4 °C 1011.7 hPa SSO 7.6 km/h 14.5 km/h 95% 0.0 mm
07:39 15.3 °C 14.5 °C 1011.7 hPa SSO 7.9 km/h 18.5 km/h 94.9% 0.0 mm
07:44 15.3 °C 14.3 °C 1011.7 hPa SSO 8.4 km/h 19.3 km/h 94% 0.0 mm
07:49 15.3 °C 14.3 °C 1011.7 hPa Sur 8.9 km/h 14.8 km/h 94% 0.0 mm
07:54 15.4 °C 14.4 °C 1011.7 hPa Sur 10 km/h 16.4 km/h 94% 0.0 mm
07:59 15.4 °C 14.4 °C 1011.7 hPa Sur 10.1 km/h 16.7 km/h 94% 0.0 mm
08:04 15.4 °C 14.4 °C 1011.8 hPa Sur 10.3 km/h 16.1 km/h 94% 0.0 mm
08:09 15.4 °C 14.4 °C 1011.8 hPa SSO 10.2 km/h 14.8 km/h 94% 0.0 mm
08:14 15.5 °C 14.6 °C 1011.8 hPa SSO 10 km/h 14.5 km/h 94% 0.0 mm
08:19 15.7 °C 14.7 °C 1012.0 hPa SO 9.1 km/h 11.3 km/h 94% 0.0 mm
08:24 15.8 °C 14.7 °C 1012.0 hPa OSO 7.6 km/h 11.1 km/h 93.3% 0.0 mm
08:29 16 °C 14.8 °C 1012.0 hPa OSO 6.6 km/h 11.3 km/h 92.8% 0.0 mm
08:34 16.1 °C 14.7 °C 1012.0 hPa Oeste 5 km/h 10 km/h 91.4% 0.0 mm
08:39 16.3 °C 14.8 °C 1012.0 hPa SO 5 km/h 9.7 km/h 90.8% 0.0 mm
08:44 16.5 °C 14.8 °C 1012.0 hPa SSE 5 km/h 10 km/h 89.4% 0.0 mm
08:49 16.8 °C 14.9 °C 1012.0 hPa SSE 5.5 km/h 11.1 km/h 88.5% 0.0 mm
08:54 17 °C 14.9 °C 1011.9 hPa Sur 6.5 km/h 11.3 km/h 87.2% 0.0 mm
08:59 17.2 °C 14.8 °C 1011.9 hPa SSO 6.5 km/h 11.3 km/h 86.1% 0.0 mm
09:04 17.3 °C 14.8 °C 1011.9 hPa SSO 6.5 km/h 11.1 km/h 84.9% 0.0 mm
09:09 17.7 °C 14.9 °C 1011.9 hPa Sur 6.6 km/h 11.3 km/h 83.6% 0.0 mm
09:14 17.9 °C 14.9 °C 1011.9 hPa SSO 6.9 km/h 13 km/h 82.4% 0.0 mm
09:19 18.2 °C 15 °C 1011.9 hPa SO 6.9 km/h 12.9 km/h 81.3% 0.0 mm
09:24 18.5 °C 15 °C 1011.8 hPa SSO 6.9 km/h 11.3 km/h 79.8% 0.0 mm
09:29 18.8 °C 14.8 °C 1011.8 hPa SSO 6.5 km/h 11.3 km/h 77.4% 0.0 mm
09:34 19.1 °C 14.9 °C 1011.8 hPa SSO 5.8 km/h 11.3 km/h 76.6% 0.0 mm
09:39 19.3 °C 14.8 °C 1011.7 hPa SSE 6.2 km/h 14.8 km/h 74.9% 0.0 mm
09:44 19.5 °C 14.7 °C 1011.7 hPa SSO 6.9 km/h 14.8 km/h 73.7% 0.0 mm
09:49 19.7 °C 14.7 °C 1011.8 hPa SO 6.9 km/h 14.5 km/h 72.9% 0.0 mm
09:54 20 °C 14.6 °C 1011.8 hPa OSO 6.9 km/h 11.3 km/h 71.1% 0.0 mm
09:59 20.4 °C 14.4 °C 1011.8 hPa Oeste 5.8 km/h 9.5 km/h 68.6% 0.0 mm
10:04 20.7 °C 14.4 °C 1011.8 hPa Sur 4.6 km/h 9.7 km/h 66.9% 0.0 mm
10:09 21.1 °C 14.3 °C 1011.8 hPa SO 4.4 km/h 9.7 km/h 65.1% 0.0 mm
10:14 21.4 °C 14.1 °C 1011.8 hPa Sur 3.9 km/h 10 km/h 62.9% 0.0 mm
10:19 21.8 °C 13.4 °C 1011.8 hPa SSO 4.2 km/h 10 km/h 59% 0.0 mm
10:24 22.2 °C 12.8 °C 1011.8 hPa SSO 4.7 km/h 11.1 km/h 55.4% 0.0 mm
10:29 22.5 °C 12.8 °C 1011.8 hPa SSO 5.5 km/h 11.3 km/h 54.1% 0.0 mm
10:34 22.8 °C 12.5 °C 1011.8 hPa SSO 6.9 km/h 11.9 km/h 52.2% 0.0 mm
10:39 23.2 °C 12.2 °C 1011.6 hPa Sur 6.8 km/h 14.8 km/h 50% 0.0 mm
10:44 23.6 °C 12 °C 1011.6 hPa SSE 6.5 km/h 14.5 km/h 48.2% 0.0 mm
10:49 23.8 °C 12 °C 1011.6 hPa SSO 7.2 km/h 14.8 km/h 47.6% 0.0 mm
10:54 24 °C 12 °C 1011.6 hPa SO 8.4 km/h 14.5 km/h 47.1% 0.0 mm
10:59 24.3 °C 12.1 °C 1011.6 hPa SSE 6.8 km/h 9.7 km/h 46.6% 0.0 mm
11:04 24.8 °C 12.1 °C 1011.8 hPa SSE 5 km/h 11.1 km/h 45.2% 0.0 mm
11:09 25.1 °C 12 °C 1011.8 hPa SSO 4.4 km/h 11.3 km/h 44.1% 0.0 mm
11:14 25.4 °C 12 °C 1011.8 hPa SSE 3.2 km/h 11.9 km/h 43.3% 0.0 mm
11:19 25.7 °C 11.8 °C 1011.8 hPa Sur 3.9 km/h 14 km/h 42.2% 0.0 mm
11:24 25.7 °C 12 °C 1011.6 hPa SO 5 km/h 14.8 km/h 42.7% 0.0 mm
11:29 25.7 °C 12.2 °C 1011.6 hPa OSO 5.5 km/h 14.5 km/h 43% 0.0 mm
11:34 25.8 °C 11.6 °C 1011.6 hPa Oeste 6.5 km/h 14.8 km/h 41.2% 0.0 mm
11:39 25.9 °C 11.3 °C 1011.5 hPa Oeste 6.6 km/h 14.8 km/h 40.1% 0.0 mm
11:44 26.1 °C 11.6 °C 1011.5 hPa OSO 6.9 km/h 16.4 km/h 40.6% 0.0 mm
11:49 26.3 °C 11.5 °C 1011.5 hPa Oeste 7.6 km/h 16.7 km/h 39.8% 0.0 mm
11:54 26.6 °C 11.2 °C 1011.5 hPa OSO 8.7 km/h 22.2 km/h 38.4% 0.0 mm
11:59 26.7 °C 11.2 °C 1011.5 hPa SO 10.3 km/h 22.5 km/h 38% 0.0 mm
12:04 26.8 °C 11.3 °C 1011.5 hPa OSO 11.9 km/h 22.5 km/h 38% 0.0 mm
12:09 26.7 °C 11.3 °C 1011.4 hPa SO 12 km/h 22.5 km/h 38.3% 0.0 mm
12:14 26.8 °C 11.4 °C 1011.4 hPa SSO 12.2 km/h 22.5 km/h 38.1% 0.0 mm
12:19 27.2 °C 11.6 °C 1011.4 hPa SO 12.1 km/h 19.3 km/h 37.8% 0.0 mm
12:24 27.5 °C 11.5 °C 1011.2 hPa Sur 11.9 km/h 20.4 km/h 37% 0.0 mm
12:29 27.5 °C 11 °C 1011.2 hPa OSO 11.3 km/h 20.9 km/h 35.8% 0.0 mm
12:34 27.5 °C 11.1 °C 1011.2 hPa OSO 10.3 km/h 21.7 km/h 35.9% 0.0 mm
12:39 27.8 °C 10.3 °C 1011.0 hPa OSO 11 km/h 26.2 km/h 33.6% 0.0 mm
12:44 28.1 °C 10.1 °C 1011.0 hPa OSO 12.2 km/h 28.2 km/h 32.5% 0.0 mm
12:49 28.2 °C 10 °C 1011.0 hPa SO 12.8 km/h 27.8 km/h 32.1% 0.0 mm
12:54 28.4 °C 10.1 °C 1010.7 hPa OSO 13.7 km/h 27.4 km/h 32% 0.0 mm
12:59 28.4 °C 10.1 °C 1010.7 hPa OSO 12.9 km/h 24.1 km/h 32% 0.0 mm
13:04 28.3 °C 10 °C 1010.7 hPa Oeste 11.9 km/h 22.5 km/h 32% 0.0 mm
13:09 28.2 °C 10.3 °C 1010.7 hPa Oeste 11.9 km/h 22.5 km/h 32.8% 0.0 mm
13:14 28.2 °C 10.3 °C 1010.7 hPa Oeste 11.9 km/h 22.2 km/h 32.8% 0.0 mm
13:19 28.3 °C 10 °C 1010.7 hPa OSO 12 km/h 23.3 km/h 32% 0.0 mm
13:24 28.3 °C 10 °C 1010.5 hPa Oeste 12.2 km/h 24.1 km/h 32% 0.0 mm
13:29 28.3 °C 10 °C 1010.5 hPa Oeste 12.2 km/h 22.5 km/h 32% 0.0 mm
13:34 28.4 °C 10.1 °C 1010.5 hPa Oeste 12.2 km/h 22.5 km/h 32% 0.0 mm
13:39 28.5 °C 10.2 °C 1010.1 hPa Oeste 11.8 km/h 22.5 km/h 32% 0.0 mm
13:44 28.6 °C 10.5 °C 1010.1 hPa Oeste 11.1 km/h 20.9 km/h 32.4% 0.0 mm
13:49 28.5 °C 10.2 °C 1010.1 hPa NO 10.8 km/h 20.9 km/h 32.1% 0.0 mm
13:54 28.5 °C 10.1 °C 1010.0 hPa NO 10.3 km/h 22.2 km/h 31.7% 0.0 mm
13:59 28.7 °C 9.9 °C 1010.0 hPa NO 10.2 km/h 22.5 km/h 31.1% 0.0 mm
14:04 28.8 °C 9.8 °C 1010.0 hPa OSO 10 km/h 24.1 km/h 30.5% 0.0 mm
14:09 28.8 °C 10 °C 1010.0 hPa ONO 11.1 km/h 24.1 km/h 31% 0.0 mm
14:14 28.9 °C 10 °C 1010.0 hPa ONO 13 km/h 24.1 km/h 31% 0.0 mm
14:19 29.1 °C 10.2 °C 1010.0 hPa NO 12.6 km/h 24.1 km/h 31% 0.0 mm
14:24 29.1 °C 10.1 °C 1009.7 hPa ONO 11.9 km/h 24.1 km/h 30.6% 0.0 mm
14:29 29 °C 10.1 °C 1009.7 hPa ONO 13.2 km/h 22.5 km/h 30.8% 0.0 mm
14:34 29.1 °C 10.2 °C 1009.7 hPa ONO 15.6 km/h 22.5 km/h 31% 0.0 mm
14:39 29.2 °C 10.3 °C 1009.7 hPa NO 14.3 km/h 25.9 km/h 31% 0.0 mm
14:44 29.2 °C 10.1 °C 1009.7 hPa ONO 11.9 km/h 25.7 km/h 30.7% 0.0 mm
14:49 29.2 °C 10.3 °C 1009.7 hPa ONO 11.9 km/h 24.1 km/h 31% 0.0 mm
14:54 29.2 °C 10.5 °C 1009.4 hPa NO 11.9 km/h 22.5 km/h 31.2% 0.0 mm
14:59 29.5 °C 10.6 °C 1009.4 hPa ONO 11.9 km/h 19.3 km/h 31% 0.0 mm
15:04 29.7 °C 10.7 °C 1009.4 hPa ONO 11.9 km/h 19.3 km/h 30.9% 0.0 mm
15:09 29.7 °C 10.2 °C 1009.3 hPa ONO 11.2 km/h 20.4 km/h 30% 0.0 mm
15:14 29.7 °C 10.2 °C 1009.3 hPa Oeste 10 km/h 20.9 km/h 30% 0.0 mm
15:19 29.8 °C 10.3 °C 1009.3 hPa Oeste 9.4 km/h 17.2 km/h 30% 0.0 mm
15:24 29.9 °C 10.4 °C 1009.1 hPa Oeste 8.4 km/h 24.1 km/h 30% 0.0 mm
15:29 29.9 °C 10.4 °C 1009.1 hPa Oeste 8.9 km/h 24.1 km/h 30% 0.0 mm
15:34 30 °C 10.6 °C 1009.1 hPa ONO 10 km/h 20.9 km/h 30.2% 0.0 mm
15:39 30.1 °C 10.6 °C 1008.9 hPa Oeste 10 km/h 22.2 km/h 30% 0.0 mm
15:44 30.2 °C 10.8 °C 1008.9 hPa ONO 10 km/h 25.6 km/h 30.3% 0.0 mm
15:49 30 °C 10.8 °C 1008.9 hPa Oeste 10.8 km/h 25.9 km/h 30.6% 0.0 mm
15:54 30.2 °C 10.8 °C 1008.7 hPa Oeste 12.2 km/h 22.5 km/h 30.1% 0.0 mm
15:59 30.3 °C 10.2 °C 1008.7 hPa SSO 10.9 km/h 20.9 km/h 29% 0.0 mm
16:04 30.3 °C 10.7 °C 1008.7 hPa SSE 9.5 km/h 20.9 km/h 29.7% 0.0 mm
16:09 30.5 °C 10.9 °C 1008.7 hPa North 8.4 km/h 17.7 km/h 29.7% 0.0 mm
16:14 30.7 °C 10.7 °C 1008.7 hPa Oeste 6.5 km/h 18.5 km/h 29.2% 0.0 mm
16:19 30.7 °C 10.6 °C 1008.7 hPa ONO 6.6 km/h 19.3 km/h 29.1% 0.0 mm
16:24 30.5 °C 10.9 °C 1008.4 hPa ONO 6.9 km/h 19.8 km/h 29.9% 0.0 mm
16:29 30.3 °C 10.8 °C 1008.4 hPa ONO 8.1 km/h 21.7 km/h 30% 0.0 mm
16:34 30.4 °C 10.9 °C 1008.4 hPa ONO 10 km/h 22.5 km/h 30% 0.0 mm
16:39 30.4 °C 10.5 °C 1008.2 hPa ONO 10.1 km/h 19.3 km/h 29.2% 0.0 mm
16:44 30.5 °C 10.6 °C 1008.2 hPa Oeste 10.3 km/h 16.1 km/h 29.4% 0.0 mm
16:49 30.6 °C 10.9 °C 1008.2 hPa Este 8.7 km/h 11.3 km/h 29.7% 0.0 mm
16:54 30.6 °C 11.2 °C 1008.1 hPa Sur 5.8 km/h 14.8 km/h 30.2% 0.0 mm
16:59 30.7 °C 12.2 °C 1008.1 hPa ENE 6.3 km/h 14.5 km/h 32.2% 0.0 mm
17:04 30.7 °C 12.1 °C 1008.1 hPa OSO 6.9 km/h 13 km/h 32% 0.0 mm
17:09 30.7 °C 12.2 °C 1007.9 hPa SSE 6.2 km/h 12.9 km/h 32.3% 0.0 mm
17:14 30.7 °C 12.1 °C 1007.9 hPa SE 5 km/h 24.5 km/h 31.9% 0.0 mm
17:19 30.4 °C 11.9 °C 1007.9 hPa SSE 7.2 km/h 24.1 km/h 32% 0.0 mm
17:24 30.3 °C 12.2 °C 1007.7 hPa SSE 11.1 km/h 22.5 km/h 32.8% 0.0 mm
17:29 30.3 °C 12.2 °C 1007.7 hPa Sur 11.1 km/h 20.9 km/h 33% 0.0 mm
17:34 30.4 °C 12.3 °C 1007.8 hPa Sur 11.1 km/h 20.9 km/h 32.9% 0.0 mm
17:39 30.5 °C 12.3 °C 1007.8 hPa SO 10.7 km/h 19.3 km/h 32.8% 0.0 mm
17:44 30.6 °C 12.4 °C 1007.8 hPa SSE 10 km/h 16.1 km/h 32.8% 0.0 mm
17:49 30.6 °C 11.4 °C 1008.0 hPa NO 9.4 km/h 22.2 km/h 30.7% 0.0 mm
17:54 30.6 °C 11.3 °C 1008.0 hPa ONO 8.4 km/h 22.5 km/h 30.6% 0.0 mm
17:59 30.7 °C 11.2 °C 1008.0 hPa NO 9.3 km/h 22.2 km/h 30.3% 0.0 mm
18:04 30.7 °C 11.3 °C 1008.0 hPa NO 10.3 km/h 26.2 km/h 30.4% 0.0 mm
18:09 30.6 °C 11.1 °C 1007.9 hPa NO 11.6 km/h 28.2 km/h 30% 0.0 mm
18:14 30.4 °C 10.9 °C 1007.9 hPa NO 14 km/h 30.9 km/h 30% 0.0 mm
18:19 30.3 °C 10.9 °C 1007.9 hPa ONO 15.8 km/h 33.3 km/h 30.3% 0.0 mm
18:24 30.2 °C 11.1 °C 1007.9 hPa ONO 19 km/h 33.8 km/h 30.8% 0.0 mm
18:29 30.2 °C 11.3 °C 1007.9 hPa NO 18.8 km/h 29.8 km/h 31.2% 0.0 mm
18:34 30 °C 11.5 °C 1007.9 hPa NO 18.4 km/h 30.6 km/h 32% 0.0 mm
18:39 29.8 °C 11.3 °C 1007.9 hPa ONO 18.2 km/h 35.2 km/h 32% 0.0 mm
18:44 29.7 °C 11.6 °C 1007.9 hPa NO 18 km/h 35.4 km/h 32.8% 0.0 mm
18:49 29.6 °C 11.6 °C 1007.9 hPa NO 18.2 km/h 33.3 km/h 33% 0.0 mm
18:54 29.4 °C 11.8 °C 1007.9 hPa NO 18.4 km/h 33.8 km/h 33.7% 0.0 mm
18:59 29.5 °C 11.6 °C 1007.9 hPa NO 17.3 km/h 33.3 km/h 33.1% 0.0 mm
19:04 29.3 °C 11.6 °C 1008.1 hPa NO 16.1 km/h 33.8 km/h 33.4% 0.0 mm
19:09 29.2 °C 11.7 °C 1008.1 hPa NO 16.8 km/h 35.9 km/h 33.9% 0.0 mm
19:14 29 °C 11.5 °C 1008.1 hPa ONO 18 km/h 41.2 km/h 34% 0.0 mm
19:19 28.8 °C 11.4 °C 1008.1 hPa ONO 19.7 km/h 41.8 km/h 34% 0.0 mm
19:24 28.7 °C 11.5 °C 1008.0 hPa NO 22.5 km/h 35.4 km/h 34.4% 0.0 mm
19:29 28.7 °C 11.5 °C 1008.0 hPa ONO 21.5 km/h 35.2 km/h 34.4% 0.0 mm
19:34 28.7 °C 11.5 °C 1008.1 hPa NO 19.8 km/h 35.4 km/h 34.4% 0.0 mm
19:39 28.7 °C 11.2 °C 1008.1 hPa NO 18.5 km/h 33.8 km/h 34% 0.0 mm
19:44 28.5 °C 11.3 °C 1008.1 hPa ONO 16.1 km/h 29.6 km/h 34.3% 0.0 mm
19:49 28.4 °C 11.2 °C 1008.3 hPa ONO 15.9 km/h 29 km/h 34.5% 0.0 mm
19:54 28.3 °C 11.2 °C 1008.3 hPa ONO 15.6 km/h 25.7 km/h 34.6% 0.0 mm
19:59 28.2 °C 11.2 °C 1008.3 hPa NO 14.4 km/h 22.2 km/h 34.9% 0.0 mm
20:04 28 °C 11.1 °C 1008.3 hPa NO 13 km/h 27 km/h 34.9% 0.0 mm
20:09 27.9 °C 11 °C 1008.2 hPa ONO 13.4 km/h 28.6 km/h 35% 0.0 mm
20:14 27.7 °C 11 °C 1008.2 hPa NO 14 km/h 33.5 km/h 35.3% 0.0 mm
20:19 27.5 °C 11.1 °C 1008.5 hPa ONO 15.8 km/h 35.9 km/h 36% 0.0 mm
20:24 27.3 °C 11 °C 1008.5 hPa ONO 19 km/h 38.9 km/h 36.3% 0.0 mm
20:29 27.1 °C 11.2 °C 1008.5 hPa ONO 20 km/h 38.6 km/h 37% 0.0 mm
20:34 27 °C 11.1 °C 1008.7 hPa ONO 21.7 km/h 33.3 km/h 37.1% 0.0 mm
20:39 26.8 °C 11.3 °C 1008.7 hPa NO 20.5 km/h 33.8 km/h 38% 0.0 mm
20:44 26.7 °C 11.3 °C 1008.7 hPa NO 18.4 km/h 33.8 km/h 38.2% 0.0 mm
20:49 26.5 °C 11.4 °C 1009.0 hPa NO 17.6 km/h 31.7 km/h 39% 0.0 mm
20:54 26.3 °C 11.4 °C 1009.0 hPa ONO 16.4 km/h 32.2 km/h 39.3% 0.0 mm
20:59 26.2 °C 11.6 °C 1009.0 hPa ONO 16.3 km/h 37 km/h 40% 0.0 mm
21:04 26.2 °C 11.5 °C 1009.0 hPa ONO 16.1 km/h 37 km/h 40% 0.0 mm
21:09 26.1 °C 11.4 °C 1009.0 hPa ONO 18.1 km/h 37 km/h 40% 0.0 mm
21:14 26.1 °C 11.4 °C 1009.0 hPa ONO 21.7 km/h 35.4 km/h 40% 0.0 mm
21:19 26.1 °C 11.4 °C 1009.2 hPa ONO 21.5 km/h 39.6 km/h 40% 0.0 mm
21:24 26 °C 11.3 °C 1009.2 hPa ONO 20.9 km/h 40.2 km/h 40% 0.0 mm
21:29 26 °C 11.3 °C 1009.2 hPa ONO 21.4 km/h 41.2 km/h 40% 0.0 mm
21:34 26 °C 11.4 °C 1009.3 hPa ONO 22.5 km/h 41.8 km/h 40.4% 0.0 mm
21:39 25.9 °C 11.6 °C 1009.3 hPa ONO 21.6 km/h 34.3 km/h 41% 0.0 mm
21:44 25.8 °C 11.6 °C 1009.3 hPa ONO 19.8 km/h 33.8 km/h 41% 0.0 mm
21:49 25.8 °C 11.6 °C 1009.7 hPa ONO 18.8 km/h 32.2 km/h 41% 0.0 mm
21:54 25.7 °C 11.5 °C 1009.7 hPa ONO 17.2 km/h 25.7 km/h 41% 0.0 mm
21:59 25.7 °C 11.7 °C 1009.7 hPa Oeste 14.9 km/h 24.1 km/h 41.6% 0.0 mm
22:04 25.6 °C 11.7 °C 1009.9 hPa Oeste 12.2 km/h 22.5 km/h 42% 0.0 mm
22:09 25.5 °C 11.7 °C 1009.9 hPa OSO 10.8 km/h 15.6 km/h 42% 0.0 mm
22:14 25.4 °C 11.6 °C 1009.9 hPa OSO 8.4 km/h 16.1 km/h 42% 0.0 mm
22:19 25.4 °C 11.6 °C 1010.2 hPa SO 7.7 km/h 13 km/h 42% 0.0 mm
22:24 25.4 °C 11.5 °C 1010.2 hPa SO 6.5 km/h 11.3 km/h 42% 0.0 mm
22:29 25.4 °C 11.5 °C 1010.2 hPa OSO 5.8 km/h 9.3 km/h 42% 0.0 mm
22:34 25.4 °C 11.6 °C 1010.2 hPa Sur 4.7 km/h 9.7 km/h 42% 0.0 mm
22:39 25.5 °C 11.7 °C 1010.2 hPa ESE 4.8 km/h 13.7 km/h 42% 0.0 mm
22:44 25.6 °C 11.6 °C 1010.2 hPa NO 5 km/h 14.5 km/h 41.8% 0.0 mm
22:49 25.6 °C 11.7 °C 1010.3 hPa NNO 5.3 km/h 9.7 km/h 42% 0.0 mm
22:54 25.5 °C 11.6 °C 1010.3 hPa NO 5.8 km/h 9.7 km/h 42% 0.0 mm
22:59 25.4 °C 11.6 °C 1010.3 hPa North 4.9 km/h 8 km/h 42% 0.0 mm
23:04 25.3 °C 11.8 °C 1010.3 hPa SSE 3.9 km/h 13 km/h 42.9% 0.0 mm
23:09 25.3 °C 11.5 °C 1010.3 hPa Sur 4.8 km/h 12.9 km/h 42.2% 0.0 mm
23:14 25.3 °C 11.6 °C 1010.3 hPa SO 6.5 km/h 11.3 km/h 42.4% 0.0 mm
23:19 25.2 °C 11.5 °C 1010.4 hPa OSO 6.2 km/h 11.1 km/h 42.3% 0.0 mm
23:24 25.2 °C 11.7 °C 1010.4 hPa SO 5.8 km/h 11.3 km/h 43% 0.0 mm
23:29 25 °C 11.5 °C 1010.4 hPa SO 5.8 km/h 10 km/h 43% 0.0 mm
23:34 24.8 °C 11.7 °C 1010.5 hPa SSO 5.8 km/h 9.7 km/h 43.8% 0.0 mm
23:39 24.8 °C 11.7 °C 1010.5 hPa OSO 5.5 km/h 9.7 km/h 44% 0.0 mm
23:44 24.8 °C 11.7 °C 1010.5 hPa OSO 5 km/h 10 km/h 44% 0.0 mm
23:49 24.7 °C 11.6 °C 1010.5 hPa OSO 5 km/h 10 km/h 44% 0.0 mm
23:54 24.7 °C 11.8 °C 1010.5 hPa Oeste 5 km/h 9.7 km/h 44.8% 0.0 mm
23:59 24.5 °C 11.8 °C 1010.5 hPa Oeste 5.6 km/h 11.9 km/h 45% 0.0 mm
Murcia-Puente Tocinos, Espa?a
Compliments of Weather Underground - 3.25 mb

La estación de MeteoMurcia.com, publica sus datos en los siguientes proyectos:

Weather Underground PWS IMURCIAP2 Meteoclimatic www.awekas.at

W3Counter
Web Analytics